createdAt,value
2022-10-25T00:00:00.211Z,2.5
2022-10-25T00:05:00.184Z,2.8
2022-10-25T00:10:00.194Z,4.0
2022-10-25T00:15:00.186Z,3.7
2022-10-25T00:20:00.205Z,3.9
2022-10-25T00:25:00.214Z,4.5
2022-10-25T00:30:00.221Z,4.7
2022-10-25T00:35:00.236Z,5.0
2022-10-25T00:40:00.211Z,5.0
2022-10-25T00:45:00.194Z,5.2
2022-10-25T00:50:00.212Z,5.1
2022-10-25T00:55:00.187Z,5.7
2022-10-25T01:00:00.209Z,5.2
2022-10-25T01:05:00.214Z,5.5
2022-10-25T01:10:00.188Z,5.5
2022-10-25T01:15:00.184Z,6.0
2022-10-25T01:20:00.197Z,5.2
2022-10-25T01:25:00.231Z,5.1
2022-10-25T01:30:00.199Z,4.9
2022-10-25T01:35:00.217Z,5.0
2022-10-25T01:40:00.183Z,4.9
2022-10-25T01:45:00.191Z,5.2
2022-10-25T01:50:00.194Z,4.3
2022-10-25T01:55:00.215Z,4.8
2022-10-25T02:00:00.206Z,4.7
2022-10-25T02:05:00.224Z,4.9
2022-10-25T02:10:00.274Z,4.9
2022-10-25T02:15:00.170Z,5.8
2022-10-25T02:20:00.206Z,5.2
2022-10-25T02:25:00.187Z,5.5
2022-10-25T02:30:00.204Z,5.2
2022-10-25T02:35:00.274Z,4.8
2022-10-25T02:40:00.205Z,6.2
2022-10-25T02:45:00.215Z,5.1
2022-10-25T02:50:00.192Z,5.2
2022-10-25T02:55:00.196Z,5.1
2022-10-25T03:00:00.339Z,5.6
2022-10-25T03:05:00.224Z,4.8
2022-10-25T03:10:00.273Z,4.9
2022-10-25T03:15:00.487Z,5.3
2022-10-25T03:20:00.211Z,4.9
2022-10-25T03:25:00.276Z,5.0
2022-10-25T03:30:00.209Z,5.2
2022-10-25T03:35:00.235Z,4.5
2022-10-25T03:40:00.230Z,4.9
2022-10-25T03:45:00.246Z,5.2
2022-10-25T03:50:00.200Z,4.2
2022-10-25T03:55:00.191Z,4.5
2022-10-25T04:00:00.285Z,4.4
2022-10-25T04:05:00.213Z,4.2
2022-10-25T04:10:02.739Z,4.8
2022-10-25T04:15:00.205Z,4.3
2022-10-25T04:20:00.201Z,4.0
2022-10-25T04:25:00.203Z,4.3
2022-10-25T04:30:00.266Z,3.9
2022-10-25T04:35:00.201Z,4.3
2022-10-25T04:40:00.200Z,4.0
2022-10-25T04:45:00.226Z,4.4
2022-10-25T04:50:00.209Z,4.2
2022-10-25T04:55:00.205Z,4.8
2022-10-25T05:00:00.257Z,3.8
2022-10-25T05:05:00.221Z,4.9
2022-10-25T05:10:00.214Z,4.5
2022-10-25T05:15:00.207Z,4.0
2022-10-25T05:20:00.237Z,4.4
2022-10-25T05:25:00.218Z,4.8
2022-10-25T05:30:00.229Z,5.1
2022-10-25T05:35:00.267Z,5.1
2022-10-25T05:40:00.222Z,5.0
2022-10-25T05:45:00.220Z,4.9
2022-10-25T05:50:00.223Z,4.7
2022-10-25T05:55:00.208Z,5.0
2022-10-25T06:00:00.240Z,5.4
2022-10-25T06:05:00.218Z,5.7
2022-10-25T06:10:00.390Z,5.5
2022-10-25T06:15:00.219Z,6.2
2022-10-25T06:20:00.180Z,6.2
2022-10-25T06:25:00.188Z,6.3
2022-10-25T06:30:00.243Z,6.5
2022-10-25T06:35:00.227Z,6.1
2022-10-25T06:40:00.212Z,6.5
2022-10-25T06:45:00.177Z,6.5
2022-10-25T06:50:00.284Z,7.0
2022-10-25T06:55:00.227Z,7.4
2022-10-25T07:05:00.221Z,7.1
2022-10-25T07:10:00.209Z,6.5
2022-10-25T07:15:00.222Z,6.3
2022-10-25T07:20:00.184Z,6.0
2022-10-25T07:25:00.251Z,0.0
2022-10-25T07:30:00.221Z,5.8
2022-10-25T07:35:00.535Z,7.0
2022-10-25T07:40:00.251Z,6.0
2022-10-25T07:45:00.252Z,6.0
2022-10-25T07:50:00.195Z,6.8
2022-10-25T07:55:00.251Z,6.6
2022-10-25T08:00:00.213Z,5.9
2022-10-25T08:05:00.241Z,5.8
2022-10-25T08:10:00.202Z,5.8
2022-10-25T08:15:00.178Z,5.5
2022-10-25T08:20:00.207Z,5.4
2022-10-25T08:25:00.209Z,6.0
2022-10-25T08:30:00.191Z,5.5
2022-10-25T08:35:00.174Z,5.5
2022-10-25T08:40:00.176Z,4.7
2022-10-25T08:45:00.179Z,5.1
2022-10-25T08:50:00.178Z,4.8
2022-10-25T08:55:03.285Z,6.3
2022-10-25T09:00:00.217Z,5.2
2022-10-25T09:05:00.207Z,4.7
2022-10-25T09:10:00.202Z,4.7
2022-10-25T09:15:00.207Z,4.6
2022-10-25T09:20:00.246Z,4.1
2022-10-25T09:25:00.200Z,4.6
2022-10-25T09:30:03.779Z,4.9
2022-10-25T09:35:00.194Z,4.5
2022-10-25T09:40:00.227Z,4.5
2022-10-25T09:45:00.227Z,4.5
2022-10-25T09:50:00.209Z,4.6
2022-10-25T09:55:00.268Z,4.8
2022-10-25T10:00:00.210Z,4.7
2022-10-25T10:05:00.200Z,5.6
2022-10-25T10:10:00.237Z,5.4
2022-10-25T10:15:00.252Z,4.8
2022-10-25T10:20:00.205Z,4.0
2022-10-25T10:25:00.200Z,4.3
2022-10-25T10:30:00.245Z,4.8
2022-10-25T10:35:00.236Z,4.3
2022-10-25T10:40:00.190Z,4.9
2022-10-25T10:45:00.202Z,4.9
2022-10-25T10:50:00.194Z,4.8
2022-10-25T10:55:00.217Z,4.9
2022-10-25T11:00:00.231Z,4.8
2022-10-25T11:05:00.234Z,4.5
2022-10-25T11:10:00.214Z,4.9
2022-10-25T11:15:00.205Z,4.4
2022-10-25T11:20:00.217Z,5.5
2022-10-25T11:25:00.228Z,4.9
2022-10-25T11:30:00.211Z,4.1
2022-10-25T11:35:00.218Z,3.4
2022-10-25T11:40:00.195Z,4.2
2022-10-25T11:45:00.200Z,4.8
2022-10-25T11:50:00.196Z,3.9
2022-10-25T11:55:00.215Z,3.7
2022-10-25T12:00:00.236Z,4.3
2022-10-25T12:05:00.260Z,4.0
2022-10-25T12:10:00.197Z,3.8
2022-10-25T12:15:00.250Z,3.9
2022-10-25T12:20:00.225Z,3.8
2022-10-25T12:25:00.190Z,4.1
2022-10-25T12:30:00.233Z,4.3
2022-10-25T12:35:00.228Z,4.3
2022-10-25T12:40:00.212Z,4.4
2022-10-25T12:45:00.196Z,4.3
2022-10-25T12:50:00.208Z,4.2
2022-10-25T12:55:00.190Z,3.8
2022-10-25T13:00:00.246Z,3.8
2022-10-25T13:05:00.190Z,3.5
2022-10-25T13:10:00.196Z,3.7
2022-10-25T13:15:00.228Z,3.7
2022-10-25T13:20:00.203Z,3.9
2022-10-25T13:25:00.207Z,3.8
2022-10-25T13:30:00.368Z,3.8
2022-10-25T13:35:00.196Z,3.8
2022-10-25T13:40:00.205Z,3.5
2022-10-25T13:45:00.222Z,3.6
2022-10-25T13:50:00.195Z,3.6
2022-10-25T13:55:00.200Z,3.4
2022-10-25T14:00:00.304Z,3.8
2022-10-25T14:05:00.204Z,3.2
2022-10-25T14:10:00.202Z,3.3
2022-10-25T14:15:00.216Z,3.0
2022-10-25T14:20:00.317Z,0.0
2022-10-25T14:25:00.201Z,0.0
2022-10-25T14:30:00.219Z,2.8
2022-10-25T14:35:00.198Z,2.6
2022-10-25T14:40:00.249Z,2.6
2022-10-25T14:45:00.208Z,3.0
2022-10-25T14:50:00.331Z,2.7
2022-10-25T14:55:00.199Z,2.8
2022-10-25T15:00:00.524Z,2.7
2022-10-25T15:05:00.213Z,2.5
2022-10-25T15:10:00.472Z,3.0
2022-10-25T15:15:00.205Z,2.8
2022-10-25T15:20:00.376Z,2.7
2022-10-25T15:25:00.222Z,2.8
2022-10-25T15:30:00.271Z,2.8
2022-10-25T15:35:00.194Z,3.0
2022-10-25T15:40:00.197Z,3.3
2022-10-25T15:45:00.204Z,3.4
2022-10-25T15:50:00.205Z,3.1
2022-10-25T15:55:00.189Z,3.3
2022-10-25T16:00:00.211Z,3.3
2022-10-25T16:05:00.211Z,3.0
2022-10-25T16:10:00.232Z,3.3
2022-10-25T16:15:00.258Z,3.3
2022-10-25T16:20:00.195Z,3.5
2022-10-25T16:25:00.225Z,3.8
2022-10-25T16:30:00.357Z,3.5
2022-10-25T16:35:00.196Z,3.5
2022-10-25T16:40:00.200Z,3.6
2022-10-25T16:45:00.232Z,3.8
2022-10-25T16:50:00.201Z,3.4
2022-10-25T16:55:00.203Z,3.9
2022-10-25T17:00:00.200Z,4.4
2022-10-25T17:05:00.209Z,4.6
2022-10-25T17:10:00.262Z,4.7
2022-10-25T17:15:00.293Z,4.4
2022-10-25T17:20:00.205Z,4.6
2022-10-25T17:25:00.233Z,4.6
2022-10-25T17:30:00.212Z,4.3
2022-10-25T17:35:00.232Z,4.4
2022-10-25T17:40:00.198Z,3.9
2022-10-25T17:45:00.226Z,4.0
2022-10-25T17:50:00.193Z,4.1
2022-10-25T17:55:00.191Z,4.3
2022-10-25T18:00:00.203Z,5.3
2022-10-25T18:05:20.151Z,4.3
2022-10-25T18:10:00.189Z,4.4
2022-10-25T18:15:00.191Z,4.6
2022-10-25T18:20:00.206Z,4.8
2022-10-25T18:25:00.229Z,5.1
2022-10-25T18:30:00.231Z,4.8
2022-10-25T18:35:00.209Z,4.5
2022-10-25T18:40:00.214Z,4.4
2022-10-25T18:45:00.196Z,6.0
2022-10-25T18:50:00.203Z,5.2
2022-10-25T18:55:00.211Z,5.6
2022-10-25T19:00:00.255Z,4.9
2022-10-25T19:05:00.325Z,4.9
2022-10-25T19:10:00.232Z,5.5
2022-10-25T19:15:00.235Z,5.9
2022-10-25T19:20:00.191Z,6.8
2022-10-25T19:25:00.387Z,6.8
2022-10-25T19:30:00.230Z,6.1
2022-10-25T20:00:00.291Z,0.0
2022-10-25T20:05:00.291Z,5.5
2022-10-25T20:10:00.207Z,5.1
2022-10-25T20:15:00.337Z,5.7
2022-10-25T20:20:00.199Z,5.9
2022-10-25T20:25:00.190Z,5.8
2022-10-25T20:30:00.240Z,6.0
2022-10-25T20:35:00.294Z,6.1
2022-10-25T20:40:00.199Z,5.9
2022-10-25T20:45:00.290Z,5.8
2022-10-25T20:50:00.208Z,5.9
2022-10-25T20:55:00.297Z,5.8
2022-10-25T21:00:00.212Z,6.2
2022-10-25T21:05:00.249Z,5.7
2022-10-25T21:10:00.210Z,6.1
2022-10-25T21:15:00.223Z,5.7
2022-10-25T21:20:00.234Z,5.8
2022-10-25T21:25:00.264Z,5.4
2022-10-25T21:30:00.233Z,5.4
2022-10-25T21:35:00.214Z,5.2
2022-10-25T21:40:00.209Z,5.7
2022-10-25T21:45:00.204Z,5.5
2022-10-25T21:50:00.222Z,5.4
2022-10-25T21:55:00.207Z,5.6
2022-10-25T22:00:00.222Z,6.0
2022-10-25T22:05:00.203Z,5.9
2022-10-25T22:10:00.249Z,5.9
2022-10-25T22:15:00.200Z,5.8
2022-10-25T22:20:00.210Z,5.6
2022-10-25T22:25:00.197Z,5.4
2022-10-25T22:30:00.262Z,5.4
2022-10-25T22:35:00.219Z,5.7
2022-10-25T22:40:00.186Z,5.4
2022-10-25T22:45:00.191Z,6.4
2022-10-25T22:50:00.211Z,5.5
2022-10-25T22:55:00.227Z,5.6
2022-10-25T23:00:00.209Z,6.5
2022-10-25T23:05:00.188Z,6.6
2022-10-25T23:10:00.201Z,6.2
2022-10-25T23:15:00.213Z,10.7
2022-10-25T23:20:00.231Z,7.1
2022-10-25T23:25:00.210Z,6.4
2022-10-25T23:30:00.233Z,5.6
2022-10-25T23:35:00.195Z,5.8
2022-10-25T23:40:00.194Z,0.0
2022-10-25T23:45:00.202Z,0.0
2022-10-25T23:50:00.199Z,4.6
2022-10-25T23:55:00.198Z,6.1
